Terminal Aerodrome Forecast
Issued by NWS Goodland, KS

Home | Current Version | Previous Version | Text Only | Print | Product List | Glossary On
Versions: 1 2 3 4 5 6 7 8 9 10 11 12 13 14 15 16 17 18 19
089
FTUS43 KGLD 142320
TAFGLD
TAF
KGLD 142320Z 1500/1524 34013KT P6SM VCSH SCT035 BKN050
     FM150200 34009KT P6SM SCT250
     FM150500 29006KT P6SM FEW250
     FM151900 24012KT P6SM FEW250=

USA.gov is the U.S. government's official web portal to all federal, state and local government web resources and services.